ADDS METAR Data INFO
IDs: Format: Raw Decoded Include TAF

Data at: 1416 UTC 12 Dec 2017

K5SM 121412Z AUTO 35005KT 10SM CLR M01/M12 A3064 RMK AO2
K5SM 121354Z AUTO 36005KT 10SM CLR M01/M12 A3064 RMK AO2
K5SM 121330Z AUTO 35006KT 10SM CLR M01/M12 A3064 RMK AO2
K5SM 121312Z AUTO 35004KT 10SM CLR M01/M12 A3064 RMK AO2
K5SM 121254Z AUTO 35003KT 10SM CLR M01/M12 A3064 RMK AO2
K5SM 121230Z AUTO 00000KT 10SM CLR M01/M12 A3064 RMK AO2
K5SM 121212Z AUTO 00000KT 10SM CLR M01/M11 A3064 RMK AO2
K5SM 121154Z AUTO 00000KT 10SM CLR M01/M11 A3064 RMK AO2
K5SM 121130Z AUTO 00000KT 10SM CLR M01/M11 A3065 RMK AO2
K5SM 121112Z AUTO 00000KT 10SM CLR M01/M11 A3065 RMK AO2
K5SM 121054Z AUTO 00000KT 10SM CLR M01/M11 A3065 RMK AO2
K5SM 121030Z AUTO 32005KT 10SM CLR M01/M11 A3065 RMK AO2
K5SM 121012Z AUTO 00000KT 10SM CLR M01/M11 A3065 RMK AO2
K5SM 120954Z AUTO 00000KT 10SM CLR M01/M12 A3065 RMK AO2
K5SM 120930Z AUTO 32004KT 10SM CLR M01/M12 A3066 RMK AO2
K5SM 120912Z AUTO 31003KT 10SM CLR M01/M12 A3065 RMK AO2
K5SM 120854Z AUTO 30003KT 10SM CLR M01/M12 A3065 RMK AO2
K5SM 120830Z AUTO 28003KT 10SM CLR M01/M12 A3064 RMK AO2
K5SM 120812Z AUTO 00000KT 10SM CLR M01/M12 A3064 RMK AO2
K5SM 120754Z AUTO 29003KT 10SM CLR M01/M10 A3064 RMK AO2
K5SM 120730Z AUTO 29005KT 10SM CLR M01/M11 A3064 RMK AO2
K5SM 120712Z AUTO 29005KT 10SM CLR M01/M11 A3064 RMK AO2
K5SM 120653Z AUTO 28005KT 10SM CLR M01/M11 A3064 RMK AO2
K5SM 120630Z AUTO 28003KT 10SM CLR M01/M12 A3064 RMK AO2
K5SM 120612Z AUTO 00000KT 10SM CLR M01/M12 A3064 RMK AO2
K5SM 120554Z AUTO 00000KT 10SM CLR M01/M14 A3064 RMK AO2
K5SM 120530Z AUTO 06003KT 10SM CLR M03/M13 A3064 RMK AO2
K5SM 120512Z AUTO 06004KT 10SM CLR M02/M15 A3064 RMK AO2
K5SM 120454Z AUTO 06004KT 10SM CLR M02/M15 A3064 RMK AO2
K5SM 120430Z AUTO 05005KT 10SM CLR M03/M11 A3063 RMK AO2
K5SM 120412Z AUTO 02003KT 10SM CLR M03/M10 A3063 RMK AO2
K5SM 120351Z AUTO 01003KT 10SM CLR M03/M10 A3062 RMK AO2
K5SM 120334Z AUTO 01003KT 10SM CLR M02/M10 A3062 RMK AO2
K5SM 120311Z AUTO 01004KT 10SM CLR M02/M10 A3062 RMK AO2
K5SM 120253Z AUTO 01003KT 10SM CLR M02/M10 A3063 RMK AO2
K5SM 120235Z AUTO 01005KT 10SM CLR M02/M11 A3063 RMK AO2
K5SM 120212Z AUTO 01004KT 10SM CLR M01/M12 A3063 RMK AO2
K5SM 120152Z AUTO 36004KT 10SM CLR M01/M12 A3063 RMK AO2
K5SM 120135Z AUTO 36005KT 10SM CLR M01/M12 A3063 RMK AO2
K5SM 120111Z AUTO 35004KT 10SM CLR 00/M13 A3063 RMK AO2
K5SM 120055Z AUTO 35003KT 10SM CLR 00/M14 A3062 RMK AO2
K5SM 120031Z AUTO 33006KT 10SM CLR 00/M15 A3062 RMK AO2
K5SM 120013Z AUTO 34004KT 10SM CLR 00/M14 A3062 RMK AO2
K5SM 112354Z AUTO 32004KT 10SM CLR 00/M15 A3062 RMK AO2
K5SM 112335Z AUTO 31005KT 10SM CLR 00/M15 A3062 RMK AO2
K5SM 112311Z AUTO 33004KT 10SM CLR 00/M16 A3062 RMK AO2
K5SM 112255Z AUTO 32006KT 10SM CLR 00/M16 A3062 RMK AO2
K5SM 112235Z AUTO 31006G16KT 270V350 10SM CLR 00/M16 A3062 RMK AO2
K5SM 112212Z AUTO 29004KT 10SM CLR 01/M16 A3061 RMK AO2
K5SM 112151Z AUTO 26003KT 10SM CLR 01/M16 A3060 RMK AO2
K5SM 112132Z AUTO 28004KT 10SM CLR 01/M16 A3060 RMK AO2
K5SM 112113Z AUTO 29008KT 190V330 10SM CLR 02/M16 A3060 RMK AO2
K5SM 112052Z AUTO 30005KT 10SM CLR 01/M17 A3060 RMK AO2
K5SM 112035Z AUTO 30003KT 10SM CLR 01/M20 A3061 RMK AO2
K5SM 112012Z AUTO 29005KT 10SM CLR 01/M21 A3061 RMK AO2
K5SM 111954Z AUTO 29006G14KT 10SM CLR 01/M22 A3061 RMK AO2
K5SM 111930Z AUTO 28008G15KT 240V340 10SM CLR 01/M23 A3061 RMK AO2
K5SM 111911Z AUTO 27006KT 10SM CLR 01/M23 A3061 RMK AO2
K5SM 111855Z AUTO 29004KT 10SM CLR 01/M24 A3062 RMK AO2
K5SM 111831Z AUTO 29005G15KT 10SM CLR 00/M23 A3063 RMK AO2
K5SM 111812Z AUTO 31004KT 10SM CLR 00/M23 A3064 RMK AO2
K5SM 111753Z AUTO 28006KT 10SM CLR 00/M26 A3063 RMK AO2
K5SM 111735Z AUTO 26009G15KT 240V300 10SM CLR 00/M27 A3064 RMK AO2
K5SM 111712Z AUTO 26008KT 200V270 10SM CLR 00/M28 A3064 RMK AO2
K5SM 111654Z AUTO 26006KT 10SM CLR M01/M28 A3064 RMK AO2
K5SM 111630Z AUTO 25008KT 10SM CLR M01/M28 A3063 RMK AO2
K5SM 111612Z AUTO 25006KT 10SM CLR M02/M28 A3062 RMK AO2
K5SM 111554Z AUTO 25006KT 10SM CLR M02/M28 A3062 RMK AO2
K5SM 111530Z AUTO 25006KT 10SM CLR M02/M28 A3062 RMK AO2
K5SM 111512Z AUTO 25005KT 10SM CLR M02/M28 A3061 RMK AO2
K5SM 111454Z AUTO 25006KT 10SM CLR M03/M28 A3062 RMK AO2
K5SM 111430Z AUTO 24007KT 10SM CLR M03/M28 A3062 RMK AO2
K5SM 111412Z AUTO 23007KT 10SM CLR M03/M28 A3062 RMK AO2
K5SM 111354Z AUTO 26004KT 10SM CLR M02/M30 A3062 RMK AO2
K5SM 111330Z AUTO 26004KT 10SM CLR M02/M30 A3062 RMK AO2
K5SM 111312Z AUTO 28005KT 10SM CLR M02/M30 A3062 RMK AO2
K5SM 111254Z AUTO 29004KT 10SM CLR M02/M30 A3062 RMK AO2
K5SM 111230Z AUTO 29004KT 10SM CLR M02/M30 A3062 RMK AO2
K5SM 111212Z AUTO 30005KT 10SM CLR M02/M29 A3062 RMK AO2
K5SM 111154Z AUTO 31008KT 10SM CLR M02/M28 A3062 RMK AO2
K5SM 111130Z AUTO 31009KT 10SM CLR M02/M28 A3062 RMK AO2
K5SM 111112Z AUTO 31007KT 10SM CLR M02/M28 A3062 RMK AO2
K5SM 111054Z AUTO 31008KT 10SM CLR M02/M28 A3062 RMK AO2
K5SM 111030Z AUTO 32007KT 10SM CLR M02/M28 A3063 RMK AO2
K5SM 111012Z AUTO 33005KT 10SM CLR M02/M28 A3063 RMK AO2
K5SM 110954Z AUTO 31007KT 290V350 10SM CLR M02/M28 A3063 RMK AO2
K5SM 110930Z AUTO 31009KT 10SM CLR M02/M28 A3062 RMK AO2
K5SM 110912Z AUTO 30005KT 10SM CLR M02/M28 A3063 RMK AO2
K5SM 110849Z AUTO 33006KT 10SM CLR M02/M28 A3062 RMK AO2
K5SM 110831Z AUTO 33004KT 10SM CLR M01/M28 A3062 RMK AO2
K5SM 110813Z AUTO 32006KT 10SM CLR M01/M28 A3062 RMK AO2
K5SM 110754Z AUTO 32008KT 10SM CLR M01/M28 A3062 RMK AO2
K5SM 110730Z AUTO 30008KT 10SM CLR M01/M28 A3061 RMK AO2
K5SM 110712Z AUTO 34005KT 10SM CLR M01/M30 A3062 RMK AO2
K5SM 110653Z AUTO 33005KT 10SM CLR M01/M28 A3062 RMK AO2
K5SM 110630Z AUTO 35004KT 10SM CLR M01/M28 A3062 RMK AO2
K5SM 110612Z AUTO 35005KT 10SM CLR M01/M27 A3063 RMK AO2
K5SM 110553Z AUTO 34005KT 10SM CLR M01/M27 A3063 RMK AO2
K5SM 110535Z AUTO 34005KT 10SM CLR M01/M27 A3063 RMK AO2
K5SM 110512Z AUTO 32005KT 10SM CLR M02/M27 A3064 RMK AO2
K5SM 110454Z AUTO 34003KT 10SM CLR M02/M27 A3063 RMK AO2
K5SM 110430Z AUTO 00000KT 10SM CLR M01/M28 A3062 RMK AO2
K5SM 110412Z AUTO 00000KT 10SM CLR M01/M28 A3062 RMK AO2
K5SM 110354Z AUTO 00000KT 10SM CLR M02/M25 A3061 RMK AO2
K5SM 110330Z AUTO 29004KT 10SM CLR M02/M26 A3062 RMK AO2
K5SM 110312Z AUTO 31005KT 10SM CLR M02/M25 A3062 RMK AO2
K5SM 110253Z AUTO 30006KT 10SM CLR M02/M25 A3062 RMK AO2
K5SM 110230Z AUTO 29005KT 10SM CLR M02/M24 A3061 RMK AO2